Time,TemperatureF,DewpointF,PressureIn,WindDirection,WindDirectionDegrees,WindSpeedMPH,WindSpeedGustMPH,Humidity,HourlyPrecipIn,Conditions,Clouds,dailyrainin,SolarRadiationWatts/m^2,SoftwareType,DateUTC
2013-08-18 00:02:00,66.0,55.0,-100.00,SSE,161,5.0,7.0,67,0.00,,,0.00,0.000000,,2013-08-18 05:02:00,
2013-08-18 00:43:00,64.0,54.0,-100.00,SSE,165,4.0,6.0,71,0.00,,,0.00,0.000000,,2013-08-18 05:43:00,
2013-08-18 00:52:00,64.0,54.0,-100.00,SSE,165,4.0,6.0,71,0.00,,,0.00,0.000000,,2013-08-18 05:52:00,
2013-08-18 01:01:00,64.0,54.0,-100.00,SSE,165,4.0,6.0,71,0.00,,,0.00,0.000000,,2013-08-18 06:01:00,
2013-08-18 01:42:00,63.0,54.0,-100.00,South,181,5.0,6.0,73,0.00,,,0.00,0.000000,,2013-08-18 06:42:00,
2013-08-18 01:52:00,63.0,54.0,-100.00,South,181,5.0,6.0,73,0.00,,,0.00,0.000000,,2013-08-18 06:52:00,
2013-08-18 02:01:00,63.0,54.0,-100.00,South,181,5.0,6.0,73,0.00,,,0.00,0.000000,,2013-08-18 07:01:00,
2013-08-18 02:42:00,61.0,54.0,-100.00,South,187,5.0,7.0,77,0.00,,,0.00,0.000000,,2013-08-18 07:42:00,
2013-08-18 02:52:00,61.0,54.0,-100.00,South,187,5.0,7.0,77,0.00,,,0.00,0.000000,,2013-08-18 07:52:00,
2013-08-18 03:01:00,61.0,54.0,-100.00,South,187,5.0,7.0,77,0.00,,,0.00,0.000000,,2013-08-18 08:01:00,
2013-08-18 03:42:00,57.0,54.0,-100.00,ESE,123,3.0,5.0,89,0.00,,,0.00,0.000000,,2013-08-18 08:42:00,
2013-08-18 03:52:00,57.0,54.0,-100.00,ESE,123,3.0,5.0,89,0.00,,,0.00,0.000000,,2013-08-18 08:52:00,
2013-08-18 04:01:00,57.0,54.0,-100.00,ESE,123,3.0,5.0,89,0.00,,,0.00,0.000000,,2013-08-18 09:01:00,
2013-08-18 04:43:00,53.0,51.0,-100.00,NW,312,1.0,4.0,94,0.00,,,0.00,0.000000,,2013-08-18 09:43:00,
2013-08-18 04:53:00,53.0,51.0,-100.00,NW,312,1.0,4.0,94,0.00,,,0.00,0.000000,,2013-08-18 09:53:00,
2013-08-18 05:03:00,53.0,51.0,-100.00,NW,312,1.0,4.0,94,0.00,,,0.00,0.000000,,2013-08-18 10:03:00,
2013-08-18 05:43:00,53.0,52.0,-100.00,ESE,107,1.0,3.0,95,0.00,,,0.00,0.000000,,2013-08-18 10:43:00,
2013-08-18 05:52:00,53.0,52.0,-100.00,ESE,107,1.0,3.0,95,0.00,,,0.00,0.000000,,2013-08-18 10:52:00,
2013-08-18 06:02:00,53.0,52.0,-100.00,ESE,107,1.0,3.0,95,0.00,,,0.00,0.000000,,2013-08-18 11:02:00,
2013-08-18 06:42:00,53.0,52.0,-100.00,ESE,103,2.0,3.0,97,0.00,,,0.00,0.000000,,2013-08-18 11:42:00,
2013-08-18 06:52:00,53.0,52.0,-100.00,ESE,103,2.0,3.0,97,0.00,,,0.00,0.000000,,2013-08-18 11:52:00,
2013-08-18 07:01:00,53.0,52.0,-100.00,ESE,103,2.0,3.0,97,0.00,,,0.00,0.000000,,2013-08-18 12:01:00,
2013-08-18 07:42:00,54.0,52.0,-100.00,East,86,2.0,4.0,94,0.00,,,0.00,27.000000,,2013-08-18 12:42:00,
2013-08-18 07:52:00,54.0,52.0,-100.00,East,86,2.0,4.0,94,0.00,,,0.00,27.000000,,2013-08-18 12:52:00,
2013-08-18 08:01:00,54.0,52.0,-100.00,East,86,2.0,4.0,94,0.00,,,0.00,27.000000,,2013-08-18 13:01:00,
2013-08-18 08:52:00,63.0,56.0,-100.00,SSE,167,5.0,9.0,77,0.00,,,0.00,159.000000,,2013-08-18 13:52:00,
2013-08-18 09:01:00,63.0,56.0,-100.00,SSE,167,5.0,9.0,77,0.00,,,0.00,159.000000,,2013-08-18 14:01:00,
2013-08-18 09:42:00,68.0,56.0,-100.00,South,183,7.0,11.0,65,0.00,,,0.00,332.000000,,2013-08-18 14:42:00,
2013-08-18 09:53:00,68.0,56.0,-100.00,South,183,7.0,11.0,65,0.00,,,0.00,332.000000,,2013-08-18 14:53:00,
2013-08-18 10:01:00,68.0,56.0,-100.00,South,183,7.0,11.0,65,0.00,,,0.00,332.000000,,2013-08-18 15:01:00,
2013-08-18 10:43:00,73.0,56.0,-100.00,South,190,10.0,14.0,55,0.00,,,0.00,483.000000,,2013-08-18 15:43:00,
2013-08-18 10:54:00,73.0,56.0,-100.00,South,190,10.0,14.0,55,0.00,,,0.00,483.000000,,2013-08-18 15:54:00,
2013-08-18 11:03:00,73.0,56.0,-100.00,South,190,10.0,14.0,55,0.00,,,0.00,483.000000,,2013-08-18 16:03:00,
2013-08-18 11:42:00,76.0,55.0,-100.00,SSW,194,13.0,19.0,49,0.00,,,0.00,634.000000,,2013-08-18 16:42:00,
2013-08-18 11:52:00,76.0,55.0,-100.00,SSW,194,13.0,19.0,49,0.00,,,0.00,634.000000,,2013-08-18 16:52:00,
2013-08-18 12:02:00,76.0,55.0,-100.00,SSW,194,13.0,19.0,49,0.00,,,0.00,634.000000,,2013-08-18 17:02:00,
2013-08-18 12:43:00,80.0,55.0,-100.00,SSW,208,14.0,21.0,43,0.00,,,0.00,784.000000,,2013-08-18 17:43:00,
2013-08-18 12:52:00,80.0,55.0,-100.00,SSW,208,14.0,21.0,43,0.00,,,0.00,784.000000,,2013-08-18 17:52:00,
2013-08-18 13:02:00,80.0,55.0,-100.00,SSW,208,14.0,21.0,43,0.00,,,0.00,784.000000,,2013-08-18 18:02:00,
2013-08-18 13:42:00,81.0,52.0,-100.00,South,183,18.0,25.0,37,0.00,,,0.00,853.000000,,2013-08-18 18:42:00,
2013-08-18 13:52:00,81.0,52.0,-100.00,South,183,18.0,25.0,37,0.00,,,0.00,853.000000,,2013-08-18 18:52:00,
2013-08-18 14:01:00,81.0,52.0,-100.00,South,183,18.0,25.0,37,0.00,,,0.00,853.000000,,2013-08-18 19:01:00,
2013-08-18 14:42:00,81.0,52.0,-100.00,SSW,195,16.0,24.0,37,0.00,,,0.00,742.000000,,2013-08-18 19:42:00,
2013-08-18 14:52:00,81.0,52.0,-100.00,SSW,195,16.0,24.0,37,0.00,,,0.00,742.000000,,2013-08-18 19:52:00,
2013-08-18 15:02:00,81.0,52.0,-100.00,SSW,195,16.0,24.0,37,0.00,,,0.00,742.000000,,2013-08-18 20:02:00,
2013-08-18 15:42:00,82.0,52.0,-100.00,SSW,201,15.0,23.0,36,0.00,,,0.00,718.000000,,2013-08-18 20:42:00,
2013-08-18 15:52:00,82.0,52.0,-100.00,SSW,201,15.0,23.0,36,0.00,,,0.00,718.000000,,2013-08-18 20:52:00,
2013-08-18 16:01:00,82.0,52.0,-100.00,SSW,201,15.0,23.0,36,0.00,,,0.00,718.000000,,2013-08-18 21:01:00,
2013-08-18 16:42:00,82.0,51.0,-100.00,SW,219,14.0,22.0,34,0.00,,,0.00,718.000000,,2013-08-18 21:42:00,
2013-08-18 16:53:00,82.0,51.0,-100.00,SW,219,14.0,22.0,34,0.00,,,0.00,718.000000,,2013-08-18 21:53:00,
2013-08-18 17:03:00,82.0,51.0,-100.00,SW,219,14.0,22.0,34,0.00,,,0.00,718.000000,,2013-08-18 22:03:00,
2013-08-18 17:42:00,82.0,53.0,-100.00,SW,216,13.0,24.0,37,0.00,,,0.00,586.000000,,2013-08-18 22:42:00,
2013-08-18 17:52:00,82.0,53.0,-100.00,SW,216,13.0,24.0,37,0.00,,,0.00,586.000000,,2013-08-18 22:52:00,
2013-08-18 18:02:00,82.0,53.0,-100.00,SW,216,13.0,24.0,37,0.00,,,0.00,586.000000,,2013-08-18 23:02:00,
2013-08-18 18:42:00,79.0,53.0,-100.00,South,191,13.0,24.0,41,0.00,,,0.00,363.000000,,2013-08-18 23:42:00,
2013-08-18 18:52:00,79.0,53.0,-100.00,South,191,13.0,24.0,41,0.00,,,0.00,363.000000,,2013-08-18 23:52:00,
2013-08-18 19:02:00,79.0,53.0,-100.00,South,191,13.0,24.0,41,0.00,,,0.00,363.000000,,2013-08-19 00:02:00,
2013-08-18 19:42:00,76.0,55.0,-100.00,South,174,7.0,15.0,49,0.00,,,0.00,95.000000,,2013-08-19 00:42:00,
2013-08-18 19:52:00,76.0,55.0,-100.00,South,174,7.0,15.0,49,0.00,,,0.00,95.000000,,2013-08-19 00:52:00,
2013-08-18 20:02:00,76.0,55.0,-100.00,South,174,7.0,15.0,49,0.00,,,0.00,95.000000,,2013-08-19 01:02:00,
2013-08-18 20:42:00,73.0,56.0,-100.00,South,172,7.0,11.0,56,0.00,,,0.00,29.000000,,2013-08-19 01:42:00,
2013-08-18 20:52:00,73.0,56.0,-100.00,South,172,7.0,11.0,56,0.00,,,0.00,29.000000,,2013-08-19 01:52:00,
2013-08-18 21:06:00,73.0,56.0,-100.00,South,172,7.0,11.0,56,0.00,,,0.00,29.000000,,2013-08-19 02:06:00,
2013-08-18 21:42:00,71.0,56.0,-100.00,South,177,8.0,12.0,60,0.00,,,0.00,1.000000,,2013-08-19 02:42:00,
2013-08-18 21:52:00,71.0,56.0,-100.00,South,177,8.0,12.0,60,0.00,,,0.00,1.000000,,2013-08-19 02:52:00,
2013-08-18 22:01:00,71.0,56.0,-100.00,South,177,8.0,12.0,60,0.00,,,0.00,1.000000,,2013-08-19 03:01:00,
2013-08-18 22:42:00,70.0,56.0,-100.00,South,180,4.0,8.0,62,0.00,,,0.00,0.000000,,2013-08-19 03:42:00,
2013-08-18 22:53:00,70.0,56.0,-100.00,South,180,4.0,8.0,62,0.00,,,0.00,0.000000,,2013-08-19 03:53:00,
2013-08-18 23:03:00,70.0,56.0,-100.00,South,180,4.0,8.0,62,0.00,,,0.00,0.000000,,2013-08-19 04:03:00,
2013-08-18 23:42:00,70.0,57.0,-100.00,SSW,195,5.0,7.0,63,0.00,,,0.00,0.000000,,2013-08-19 04:42:00,
2013-08-18 23:53:00,70.0,57.0,-100.00,SSW,195,5.0,7.0,63,0.00,,,0.00,0.000000,,2013-08-19 04:53:00,